createdAt,value
2022-08-17T00:02:22.409Z,50.65
2022-08-17T00:05:30.180Z,52.04
2022-08-17T00:08:38.004Z,50.86
2022-08-17T00:11:43.206Z,49.79
2022-08-17T00:15:06.286Z,49.68
2022-08-17T00:19:01.979Z,49.84
2022-08-17T00:22:00.006Z,51.39
2022-08-17T00:24:55.996Z,52.98
2022-08-17T00:27:57.419Z,52.93
2022-08-17T00:30:59.732Z,53.54
2022-08-17T00:34:01.999Z,53.74
2022-08-17T00:37:03.517Z,51.92
2022-08-17T00:40:06.183Z,53.09
2022-08-17T00:43:14.921Z,52.50
2022-08-17T00:46:24.342Z,51.35
2022-08-17T00:49:26.335Z,52.99
2022-08-17T00:52:32.299Z,53.34
2022-08-17T00:55:34.508Z,53.77
2022-08-17T00:58:37.364Z,53.59
2022-08-17T01:01:39.784Z,52.30
2022-08-17T01:04:45.083Z,52.00
2022-08-17T01:07:50.709Z,51.59
2022-08-17T01:10:59.416Z,51.80
2022-08-17T01:14:04.096Z,50.08
2022-08-17T01:17:06.761Z,48.98
2022-08-17T01:20:09.122Z,49.91
2022-08-17T01:23:10.980Z,49.61
2022-08-17T01:26:18.235Z,50.83
2022-08-17T01:29:20.246Z,50.86
2022-08-17T01:32:21.821Z,49.62
2022-08-17T01:35:23.402Z,50.60
2022-08-17T01:38:27.392Z,50.31
2022-08-17T01:41:29.241Z,49.67
2022-08-17T01:44:30.742Z,49.32
2022-08-17T01:47:32.452Z,49.12
2022-08-17T01:50:40.904Z,49.08
2022-08-17T01:53:47.376Z,48.72
2022-08-17T01:56:51.459Z,47.52
2022-08-17T01:59:52.915Z,47.58
2022-08-17T02:02:54.434Z,48.72
2022-08-17T02:05:56.261Z,49.89
2022-08-17T02:09:03.578Z,49.82
2022-08-17T02:12:37.820Z,50.93
2022-08-17T02:15:29.108Z,50.74
2022-08-17T02:18:30.713Z,51.74
2022-08-17T02:21:32.480Z,51.95
2022-08-17T02:24:59.779Z,52.34
2022-08-17T02:27:59.897Z,52.14
2022-08-17T02:31:07.606Z,52.25
2022-08-17T02:34:09.486Z,51.95
2022-08-17T02:37:11.212Z,51.60
2022-08-17T02:40:12.634Z,52.19
2022-08-17T02:43:14.459Z,51.68
2022-08-17T02:46:15.908Z,52.27
2022-08-17T02:49:17.354Z,52.92
2022-08-17T02:52:19.005Z,51.25
2022-08-17T02:55:41.797Z,51.23
2022-08-17T02:58:43.259Z,52.03
2022-08-17T03:01:44.933Z,50.79
2022-08-17T03:04:46.450Z,52.72
2022-08-17T03:07:48.753Z,52.29
2022-08-17T03:10:50.685Z,52.99
2022-08-17T03:13:52.155Z,54.34
2022-08-17T03:16:53.704Z,54.28
2022-08-17T03:19:55.776Z,55.37
2022-08-17T03:23:02.975Z,57.09
2022-08-17T03:26:04.798Z,56.54
2022-08-17T03:29:18.817Z,56.92
2022-08-17T03:32:20.638Z,57.58
2022-08-17T03:35:25.458Z,56.91
2022-08-17T03:38:26.975Z,57.56
2022-08-17T03:41:28.612Z,57.72
2022-08-17T03:44:30.056Z,57.37
2022-08-17T03:47:50.197Z,56.66
2022-08-17T03:51:14.659Z,55.43
2022-08-17T03:54:35.059Z,53.56
2022-08-17T03:57:36.780Z,53.17
2022-08-17T04:00:39.770Z,53.02
2022-08-17T04:03:41.780Z,52.22
2022-08-17T04:06:43.146Z,51.80
2022-08-17T04:09:44.897Z,50.70
2022-08-17T04:12:54.469Z,51.35
2022-08-17T04:15:57.224Z,50.69
2022-08-17T04:18:58.994Z,50.01
2022-08-17T04:22:00.399Z,49.49
2022-08-17T04:25:09.001Z,51.10
2022-08-17T04:28:15.846Z,52.41
2022-08-17T04:31:17.880Z,52.56
2022-08-17T04:34:20.258Z,53.29
2022-08-17T04:37:22.027Z,53.35
2022-08-17T04:40:44.872Z,52.98
2022-08-17T04:43:48.824Z,53.86
2022-08-17T04:46:50.333Z,52.92
2022-08-17T04:49:53.465Z,52.69
2022-08-17T04:52:55.293Z,56.83
2022-08-17T04:55:58.928Z,59.96
2022-08-17T04:59:04.268Z,61.94
2022-08-17T05:02:05.722Z,63.86
2022-08-17T05:05:07.489Z,63.93
2022-08-17T05:08:09.188Z,64.19
2022-08-17T05:11:10.754Z,64.04
2022-08-17T05:14:12.801Z,65.51
2022-08-17T05:17:14.519Z,65.56
2022-08-17T05:20:16.428Z,65.21
2022-08-17T05:23:18.826Z,63.58
2022-08-17T05:26:25.989Z,64.27
2022-08-17T05:29:35.617Z,65.35
2022-08-17T05:32:40.298Z,66.21
2022-08-17T05:35:46.949Z,64.31
2022-08-17T05:38:48.551Z,62.51
2022-08-17T05:41:50.033Z,62.96
2022-08-17T05:44:51.476Z,61.17
2022-08-17T05:47:53.002Z,59.68
2022-08-17T05:51:19.654Z,60.29
2022-08-17T05:54:48.273Z,58.92
2022-08-17T05:58:11.276Z,58.67
2022-08-17T06:01:47.664Z,58.82
2022-08-17T06:05:11.100Z,59.54
2022-08-17T06:08:53.415Z,58.94
2022-08-17T06:12:14.484Z,59.99
2022-08-17T06:15:46.034Z,61.01
2022-08-17T06:19:00.598Z,59.87
2022-08-17T06:22:03.477Z,59.43
2022-08-17T06:25:12.783Z,61.23
2022-08-17T06:28:21.007Z,61.92
2022-08-17T06:31:29.015Z,61.73
2022-08-17T06:34:32.028Z,61.38
2022-08-17T06:38:05.445Z,61.61
2022-08-17T06:42:03.271Z,61.82
2022-08-17T06:45:15.378Z,64.71
2022-08-17T06:48:32.402Z,63.63
2022-08-17T06:51:43.356Z,64.48
2022-08-17T06:54:57.161Z,65.39
2022-08-17T06:58:05.849Z,66.53
2022-08-17T07:01:24.853Z,68.95
2022-08-17T07:04:31.161Z,68.42
2022-08-17T07:07:56.637Z,66.00
2022-08-17T07:11:04.885Z,64.40
2022-08-17T07:14:23.850Z,61.69
2022-08-17T07:17:46.779Z,60.28
2022-08-17T07:20:51.197Z,63.21
2022-08-17T07:24:06.677Z,62.37
2022-08-17T07:27:22.874Z,63.93
2022-08-17T07:30:44.675Z,64.00
2022-08-17T07:34:06.656Z,64.15
2022-08-17T07:37:08.150Z,63.63
2022-08-17T07:40:20.482Z,65.85
2022-08-17T07:43:32.037Z,66.23
2022-08-17T07:46:54.616Z,65.20
2022-08-17T07:49:56.124Z,65.32
2022-08-17T07:52:59.145Z,60.39
2022-08-17T07:56:00.607Z,61.70
2022-08-17T07:59:23.031Z,64.94
2022-08-17T08:02:33.898Z,64.47
2022-08-17T08:05:50.376Z,64.60
2022-08-17T08:08:55.957Z,62.93
2022-08-17T08:11:57.435Z,62.78
2022-08-17T08:15:18.663Z,62.54
2022-08-17T08:18:54.862Z,65.81
2022-08-17T08:22:18.096Z,64.53
2022-08-17T08:25:25.454Z,66.25
2022-08-17T08:28:30.284Z,67.79
2022-08-17T08:32:00.967Z,67.37
2022-08-17T08:35:10.704Z,69.08
2022-08-17T08:38:26.789Z,66.67
2022-08-17T08:41:52.210Z,67.73
2022-08-17T08:45:14.801Z,67.74
2022-08-17T08:48:56.189Z,68.57
2022-08-17T08:52:02.717Z,69.15
2022-08-17T08:55:26.412Z,69.33
2022-08-17T08:58:50.544Z,69.05
2022-08-17T09:02:00.142Z,67.65
2022-08-17T09:05:31.949Z,67.34
2022-08-17T09:09:15.673Z,68.22
2022-08-17T09:12:41.633Z,68.26
2022-08-17T09:15:47.896Z,67.16
2022-08-17T09:19:03.005Z,67.23
2022-08-17T09:22:31.308Z,67.19
2022-08-17T09:25:39.475Z,66.55
2022-08-17T09:28:48.185Z,68.10
2022-08-17T09:31:56.225Z,67.95
2022-08-17T09:35:03.731Z,66.95
2022-08-17T09:38:25.582Z,67.16
2022-08-17T09:42:02.630Z,66.33
2022-08-17T09:45:28.093Z,65.42
2022-08-17T09:48:44.141Z,65.65
2022-08-17T09:51:51.988Z,65.53
2022-08-17T09:54:55.508Z,65.46
2022-08-17T09:58:09.915Z,65.33
2022-08-17T10:01:39.699Z,65.08
2022-08-17T10:05:01.774Z,63.90
2022-08-17T10:08:15.039Z,64.30
2022-08-17T10:12:17.145Z,64.55
2022-08-17T10:15:40.141Z,64.12
2022-08-17T10:19:15.810Z,64.60
2022-08-17T10:22:51.195Z,64.76
2022-08-17T10:26:14.793Z,64.05
2022-08-17T10:29:25.211Z,63.89
2022-08-17T10:32:38.415Z,62.98
2022-08-17T10:36:01.203Z,61.17
2022-08-17T10:39:36.765Z,61.02
2022-08-17T10:43:04.352Z,61.94
2022-08-17T10:46:30.532Z,61.20
2022-08-17T10:49:47.430Z,60.62
2022-08-17T10:52:49.368Z,59.50
2022-08-17T10:56:12.875Z,58.73
2022-08-17T10:59:36.059Z,57.73
2022-08-17T11:02:49.707Z,57.24
2022-08-17T11:06:03.952Z,57.70
2022-08-17T11:09:31.602Z,58.05
2022-08-17T11:12:33.139Z,59.53
2022-08-17T11:16:02.373Z,57.97
2022-08-17T11:19:48.559Z,57.20
2022-08-17T11:23:10.161Z,55.99
2022-08-17T11:26:29.630Z,54.97
2022-08-17T11:29:51.960Z,51.69
2022-08-17T11:32:57.409Z,48.43
2022-08-17T11:36:26.972Z,47.65
2022-08-17T11:39:47.319Z,45.86
2022-08-17T11:43:07.915Z,45.65
2022-08-17T11:46:18.439Z,43.91
2022-08-17T11:50:18.154Z,43.39
2022-08-17T11:53:37.868Z,40.67
2022-08-17T11:56:47.196Z,40.82
2022-08-17T11:59:51.737Z,40.44
2022-08-17T12:03:26.359Z,39.03
2022-08-17T12:06:45.440Z,40.42
2022-08-17T12:09:50.850Z,39.43
2022-08-17T12:12:53.965Z,38.86
2022-08-17T12:15:56.596Z,37.94
2022-08-17T12:19:02.453Z,38.92
2022-08-17T12:22:07.958Z,39.96
2022-08-17T12:25:16.732Z,39.14
2022-08-17T12:28:24.757Z,38.11
2022-08-17T12:31:34.360Z,36.89
2022-08-17T12:34:36.010Z,37.76
2022-08-17T12:37:46.626Z,37.54
2022-08-17T12:40:58.028Z,38.17
2022-08-17T12:44:06.387Z,38.21
2022-08-17T12:47:22.342Z,38.90
2022-08-17T12:50:28.723Z,37.83
2022-08-17T12:53:35.193Z,39.06
2022-08-17T12:56:36.749Z,40.08
2022-08-17T12:59:43.117Z,38.75
2022-08-17T13:02:51.164Z,38.36
2022-08-17T13:05:52.550Z,38.25
2022-08-17T13:08:54.159Z,37.88
2022-08-17T13:12:01.637Z,39.65
2022-08-17T13:15:03.991Z,39.97
2022-08-17T13:18:28.436Z,38.93
2022-08-17T13:21:30.752Z,40.23
2022-08-17T13:24:38.017Z,39.52
2022-08-17T13:27:42.545Z,42.40
2022-08-17T13:30:44.465Z,42.88
2022-08-17T13:33:46.034Z,40.85
2022-08-17T13:36:48.760Z,43.55
2022-08-17T13:40:10.635Z,43.13
2022-08-17T13:43:12.320Z,41.99
2022-08-17T13:46:34.005Z,42.36
2022-08-17T13:49:49.048Z,41.00
2022-08-17T13:52:52.256Z,42.64
2022-08-17T13:56:00.651Z,41.92
2022-08-17T13:59:08.552Z,44.18
2022-08-17T14:02:11.219Z,44.90
2022-08-17T14:05:12.783Z,42.12
2022-08-17T14:08:16.157Z,40.34
2022-08-17T14:11:18.481Z,40.65
2022-08-17T14:14:23.167Z,41.61
2022-08-17T14:17:26.681Z,40.99
2022-08-17T14:20:28.160Z,40.97
2022-08-17T14:23:31.901Z,39.29
2022-08-17T14:26:33.352Z,41.06
2022-08-17T14:29:35.029Z,43.93
2022-08-17T14:32:38.056Z,43.35
2022-08-17T14:35:39.511Z,41.16
2022-08-17T14:38:40.873Z,41.49
2022-08-17T14:41:42.597Z,43.28
2022-08-17T14:44:44.111Z,41.66
2022-08-17T14:47:45.535Z,41.89
2022-08-17T14:50:47.129Z,40.96
2022-08-17T14:53:49.078Z,42.02
2022-08-17T14:56:59.201Z,43.30
2022-08-17T15:00:13.387Z,43.15
2022-08-17T15:03:16.176Z,40.83
2022-08-17T15:06:17.613Z,43.45
2022-08-17T15:09:19.059Z,44.24
2022-08-17T15:12:27.487Z,42.82
2022-08-17T15:15:34.057Z,42.79
2022-08-17T15:18:36.539Z,41.23
2022-08-17T15:21:38.052Z,43.96
2022-08-17T15:24:39.428Z,43.13
2022-08-17T15:27:41.444Z,41.06
2022-08-17T15:30:44.777Z,37.71
2022-08-17T15:33:46.286Z,37.88
2022-08-17T15:36:49.402Z,39.57
2022-08-17T15:39:51.697Z,41.67
2022-08-17T15:42:53.385Z,38.39
2022-08-17T15:46:03.623Z,42.37
2022-08-17T15:49:05.156Z,42.48
2022-08-17T15:52:17.017Z,40.74
2022-08-17T15:55:23.441Z,40.03
2022-08-17T15:58:29.867Z,41.14
2022-08-17T16:02:24.151Z,41.33
2022-08-17T16:05:10.050Z,39.75
2022-08-17T16:08:13.919Z,39.46
2022-08-17T16:11:18.734Z,41.72
2022-08-17T16:14:20.102Z,41.47
2022-08-17T16:17:38.633Z,40.72
2022-08-17T16:20:42.741Z,43.34
2022-08-17T16:23:44.282Z,42.62
2022-08-17T16:26:45.957Z,42.62
2022-08-17T16:29:48.192Z,43.08
2022-08-17T16:32:55.143Z,42.42
2022-08-17T16:35:56.684Z,42.07
2022-08-17T16:38:58.163Z,43.03
2022-08-17T16:42:01.311Z,43.18
2022-08-17T16:45:09.685Z,41.57
2022-08-17T16:48:11.923Z,42.52
2022-08-17T16:51:13.415Z,42.13
2022-08-17T16:54:17.679Z,43.72
2022-08-17T16:57:19.557Z,45.18
2022-08-17T17:00:21.195Z,45.98
2022-08-17T17:03:25.071Z,47.67
2022-08-17T17:07:00.998Z,49.11
2022-08-17T17:10:07.587Z,48.40
2022-08-17T17:13:37.174Z,48.34
2022-08-17T17:17:01.500Z,49.29
2022-08-17T17:20:02.885Z,51.01
2022-08-17T17:23:09.488Z,48.90
2022-08-17T17:26:50.634Z,48.56
2022-08-17T17:30:27.532Z,49.11
2022-08-17T17:33:40.394Z,46.38
2022-08-17T17:36:56.430Z,46.64
2022-08-17T17:40:03.562Z,47.27
2022-08-17T17:43:34.904Z,48.48
2022-08-17T17:46:33.752Z,48.81
2022-08-17T17:49:46.535Z,48.66
2022-08-17T17:52:55.815Z,46.80
2022-08-17T17:56:42.985Z,48.09
2022-08-17T17:59:59.478Z,48.12
2022-08-17T18:03:22.459Z,48.33
2022-08-17T18:06:36.242Z,49.00
2022-08-17T18:10:19.805Z,50.00
2022-08-17T18:13:53.544Z,50.36
2022-08-17T18:16:57.733Z,49.46
2022-08-17T18:19:59.741Z,50.05
2022-08-17T18:23:01.216Z,50.50
2022-08-17T18:26:02.932Z,52.44
2022-08-17T18:29:31.951Z,52.02
2022-08-17T18:32:39.900Z,50.86
2022-08-17T18:35:59.266Z,51.24
2022-08-17T18:39:27.987Z,52.21
2022-08-17T18:42:29.941Z,52.79
2022-08-17T18:45:44.584Z,51.77
2022-08-17T18:48:59.251Z,51.56
2022-08-17T18:52:36.416Z,51.09
2022-08-17T18:55:38.582Z,49.10
2022-08-17T18:58:40.132Z,49.70
2022-08-17T19:01:53.519Z,48.64
2022-08-17T19:05:27.077Z,48.48
2022-08-17T19:08:28.493Z,48.30
2022-08-17T19:11:34.124Z,46.64
2022-08-17T19:14:35.818Z,45.57
2022-08-17T19:17:51.009Z,46.11
2022-08-17T19:21:14.444Z,45.24
2022-08-17T19:24:22.105Z,46.29
2022-08-17T19:27:34.830Z,45.85
2022-08-17T19:30:43.456Z,45.05
2022-08-17T19:33:48.079Z,44.30
2022-08-17T19:36:52.584Z,44.54
2022-08-17T19:40:00.299Z,45.09
2022-08-17T19:43:18.276Z,46.05
2022-08-17T19:46:39.284Z,45.18
2022-08-17T19:49:49.883Z,45.15
2022-08-17T19:53:13.157Z,44.51
2022-08-17T19:56:22.207Z,44.91
2022-08-17T19:59:39.056Z,44.31
2022-08-17T20:03:07.112Z,44.53
2022-08-17T20:06:13.829Z,44.72
2022-08-17T20:09:37.746Z,44.74
2022-08-17T20:12:42.583Z,45.00
2022-08-17T20:15:45.962Z,45.58
2022-08-17T20:19:07.729Z,43.18
2022-08-17T20:22:22.767Z,43.97
2022-08-17T20:25:34.951Z,44.80
2022-08-17T20:28:39.112Z,45.29
2022-08-17T20:31:49.449Z,43.94
2022-08-17T20:35:04.154Z,43.98
2022-08-17T20:38:10.810Z,44.10
2022-08-17T20:41:31.876Z,44.45
2022-08-17T20:44:35.445Z,44.33
2022-08-17T20:48:15.316Z,44.18
2022-08-17T20:51:31.466Z,43.75
2022-08-17T20:54:45.008Z,44.11
2022-08-17T20:57:48.418Z,43.99
2022-08-17T21:00:56.236Z,45.19
2022-08-17T21:03:58.385Z,44.85
2022-08-17T21:07:43.444Z,46.06
2022-08-17T21:10:46.603Z,46.51
2022-08-17T21:14:07.264Z,46.64
2022-08-17T21:17:31.165Z,46.93
2022-08-17T21:20:58.776Z,46.85
2022-08-17T21:24:28.240Z,47.46
2022-08-17T21:27:49.944Z,47.95
2022-08-17T21:30:58.471Z,48.19
2022-08-17T21:34:15.246Z,48.67
2022-08-17T21:37:19.827Z,48.94
2022-08-17T21:40:27.785Z,50.79
2022-08-17T21:43:33.918Z,51.28
2022-08-17T21:46:39.769Z,52.53
2022-08-17T21:49:41.561Z,52.50
2022-08-17T21:52:43.171Z,52.66
2022-08-17T21:55:48.659Z,54.50
2022-08-17T21:59:25.891Z,55.09
2022-08-17T22:02:33.634Z,55.38
2022-08-17T22:05:37.871Z,55.78
2022-08-17T22:08:39.351Z,56.34
2022-08-17T22:12:02.909Z,56.72
2022-08-17T22:15:07.443Z,58.48
2022-08-17T22:18:20.062Z,58.43
2022-08-17T22:21:22.626Z,58.30
2022-08-17T22:24:26.858Z,60.36
2022-08-17T22:27:55.741Z,61.26
2022-08-17T22:31:03.441Z,62.08
2022-08-17T22:34:15.041Z,63.43
2022-08-17T22:37:28.636Z,63.03
2022-08-17T22:40:34.376Z,62.52
2022-08-17T22:43:38.401Z,63.02
2022-08-17T22:47:24.134Z,64.51
2022-08-17T22:50:29.646Z,64.70
2022-08-17T22:53:49.883Z,65.63
2022-08-17T22:57:20.037Z,65.38
2022-08-17T23:00:48.681Z,65.20
2022-08-17T23:03:58.925Z,65.90
2022-08-17T23:07:00.367Z,66.29
2022-08-17T23:10:06.313Z,66.98
2022-08-17T23:13:11.812Z,66.51
2022-08-17T23:16:14.782Z,66.27
2022-08-17T23:19:21.050Z,67.14
2022-08-17T23:22:23.576Z,66.62
2022-08-17T23:25:29.013Z,66.15
2022-08-17T23:28:30.520Z,65.77
2022-08-17T23:31:34.501Z,66.13
2022-08-17T23:34:37.454Z,65.43
2022-08-17T23:37:41.370Z,66.09
2022-08-17T23:40:42.910Z,66.79
2022-08-17T23:43:46.930Z,66.42
2022-08-17T23:46:48.403Z,68.10
2022-08-17T23:49:49.878Z,66.46
2022-08-17T23:52:55.696Z,66.95
2022-08-17T23:56:03.954Z,66.02
2022-08-17T23:59:13.511Z,65.78
